Time;durP1;ratioP1;P1;durP2;ratioP2;P2;SDS_P1;SDS_P2;PMS_P1;PMS_P2;Temp;Humidity;BMP_temperature;BMP_pressure;BME280_temperature;BME280_humidity;BME280_pressure;Samples;Min_cycle;Max_cycle;Signal;HPM_P1;HPM_P2
2021/09/16 00:02:12;;;;;;;7.22;6.18;;;;;;;32.22;20.74;94719.00;5110267;28;20051;-55
2021/09/16 00:04:39;;;;;;;8.75;6.43;;;;;;;32.16;20.94;94726.09;5116354;28;20052;-59
2021/09/16 00:07:06;;;;;;;6.80;6.07;;;;;;;32.11;20.63;94723.88;5116168;28;20062;-57
2021/09/16 00:09:33;;;;;;;7.75;6.38;;;;;;;32.07;20.75;94725.88;5116805;28;20051;-56
2021/09/16 00:12:00;;;;;;;8.13;6.07;;;;;;;32.13;20.64;94732.31;5115815;28;20043;-56
2021/09/16 00:14:27;;;;;;;7.65;6.22;;;;;;;32.17;20.68;94739.19;5115410;28;20043;-59
2021/09/16 00:16:54;;;;;;;7.20;6.50;;;;;;;32.20;20.69;94737.59;5116706;28;20050;-55
2021/09/16 00:19:21;;;;;;;7.85;6.45;;;;;;;32.12;21.04;94736.97;5116408;28;20055;-56
2021/09/16 00:21:48;;;;;;;7.35;6.18;;;;;;;32.07;21.17;94734.75;5116267;28;20044;-60
2021/09/16 00:24:15;;;;;;;8.90;6.60;;;;;;;32.38;20.48;94751.56;5116445;28;20043;-57
2021/09/16 00:26:43;;;;;;;8.35;6.25;;;;;;;32.25;20.57;94750.63;5117369;28;20063;-58
2021/09/16 00:29:11;;;;;;;7.07;6.18;;;;;;;32.14;21.10;94745.44;5116251;28;20047;-56
2021/09/16 00:31:38;;;;;;;7.75;6.50;;;;;;;32.10;20.97;94743.97;5115901;28;20481;-61
2021/09/16 00:34:05;;;;;;;8.55;6.25;;;;;;;32.07;20.75;94750.97;5116371;28;20054;-57
2021/09/16 00:36:32;;;;;;;8.38;6.60;;;;;;;31.98;21.25;94747.28;5116029;28;20058;-61
2021/09/16 00:39:06;;;;;;;9.80;6.43;;;;;;;31.80;21.42;94745.69;5116478;28;20050;-61
2021/09/16 00:41:33;;;;;;;7.18;5.80;;;;;;;31.84;21.04;94749.06;5116845;28;20048;-63
2021/09/16 00:44:00;;;;;;;6.85;5.70;;;;;;;31.86;21.18;94746.72;5116321;28;20050;-62
2021/09/16 00:46:27;;;;;;;7.43;5.78;;;;;;;32.12;21.03;94747.03;5115879;28;20058;-55
2021/09/16 00:48:54;;;;;;;8.80;5.72;;;;;;;31.87;21.26;94742.84;5115768;28;20480;-59
2021/09/16 00:51:21;;;;;;;6.45;5.85;;;;;;;31.89;21.27;94751.28;5116622;28;20374;-62
2021/09/16 00:53:50;;;;;;;5.95;5.35;;;;;;;31.89;20.96;94740.47;5115854;28;20055;-59
2021/09/16 00:56:18;;;;;;;6.15;5.53;;;;;;;31.99;20.79;94740.69;5115439;28;20056;-58
2021/09/16 00:58:47;;;;;;;6.28;5.72;;;;;;;32.02;20.93;94737.19;5115555;28;20442;-63
2021/09/16 01:01:15;;;;;;;7.85;5.55;;;;;;;31.70;21.24;94738.47;5115172;28;20054;-54
2021/09/16 01:03:42;;;;;;;7.25;5.57;;;;;;;31.85;21.24;94728.97;5115945;27;20046;-62
2021/09/16 01:06:09;;;;;;;6.30;5.00;;;;;;;31.84;21.16;94727.44;5097668;28;20050;-61
2021/09/16 01:08:37;;;;;;;6.68;5.38;;;;;;;31.84;20.77;94730.16;5116033;28;20399;-63
2021/09/16 01:11:04;;;;;;;6.07;5.00;;;;;;;31.74;20.89;94725.69;5116074;28;20050;-61
2021/09/16 01:13:31;;;;;;;6.25;5.10;;;;;;;31.76;20.69;94728.75;5115690;28;20048;-54
2021/09/16 01:15:59;;;;;;;6.00;5.38;;;;;;;31.80;21.13;94728.69;5115464;28;20043;-56
2021/09/16 01:18:26;;;;;;;6.47;5.25;;;;;;;31.72;20.94;94728.03;5115101;28;20051;-54
2021/09/16 01:20:54;;;;;;;6.35;5.75;;;;;;;31.88;21.03;94721.97;5116086;28;20446;-54
2021/09/16 01:23:24;;;;;;;6.30;5.38;;;;;;;31.81;20.99;94722.88;5115128;28;20382;-57
2021/09/16 01:25:51;;;;;;;5.78;5.18;;;;;;;31.77;20.67;94722.19;5115908;28;20454;-55
2021/09/16 01:28:19;;;;;;;5.72;5.13;;;;;;;31.74;21.23;94722.97;5116163;27;20051;-55
2021/09/16 01:30:47;;;;;;;5.60;5.10;;;;;;;31.74;21.17;94725.69;5115267;28;20441;-56
2021/09/16 01:33:14;;;;;;;8.40;5.05;;;;;;;31.67;20.97;94733.13;5112837;28;20051;-56
2021/09/16 01:35:41;;;;;;;7.55;5.07;;;;;;;31.64;21.11;94729.31;5095577;28;20052;-58
2021/09/16 01:38:09;;;;;;;5.80;5.18;;;;;;;31.49;21.32;94728.03;5105580;28;20052;-54
2021/09/16 01:40:36;;;;;;;7.25;5.50;;;;;;;31.64;20.98;94737.44;5115915;27;20043;-55
2021/09/16 01:43:04;;;;;;;9.02;5.10;;;;;;;31.65;21.23;94738.19;5114910;28;20054;-56
2021/09/16 01:45:31;;;;;;;5.95;5.35;;;;;;;31.38;21.48;94732.84;5114784;28;20389;-53
2021/09/16 01:47:58;;;;;;;6.13;5.43;;;;;;;31.51;21.51;94731.88;5115793;28;20048;-56
2021/09/16 01:50:26;;;;;;;8.07;5.32;;;;;;;31.44;21.40;94720.41;5115489;28;20357;-55
2021/09/16 01:52:54;;;;;;;5.65;4.82;;;;;;;31.40;21.48;94735.91;5114748;28;20051;-56
2021/09/16 01:55:21;;;;;;;7.70;4.90;;;;;;;31.42;21.64;94720.03;5115436;28;20389;-61
2021/09/16 01:57:49;;;;;;;6.20;4.80;;;;;;;31.41;21.22;94726.63;5115529;28;20051;-58
2021/09/16 02:00:16;;;;;;;6.53;4.95;;;;;;;31.36;21.55;94727.09;5114552;28;20480;-62
2021/09/16 02:02:44;;;;;;;9.88;5.30;;;;;;;31.35;21.49;94733.69;5114742;28;20442;-56
2021/09/16 02:05:11;;;;;;;6.63;5.60;;;;;;;31.35;21.62;94723.63;5114894;28;20043;-54
2021/09/16 02:07:39;;;;;;;8.43;5.35;;;;;;;31.41;21.38;94732.03;5115076;28;20047;-57
2021/09/16 02:10:07;;;;;;;7.07;5.55;;;;;;;31.34;21.48;94724.81;5114150;28;20039;-58
2021/09/16 02:12:34;;;;;;;8.30;5.15;;;;;;;31.45;21.32;94721.91;5115070;28;20055;-58
2021/09/16 02:15:02;;;;;;;6.13;5.32;;;;;;;31.42;21.66;94722.75;5114724;28;20438;-54
2021/09/16 02:17:29;;;;;;;5.68;5.18;;;;;;;31.35;21.49;94728.28;5110234;28;20055;-55
2021/09/16 02:19:56;;;;;;;7.40;5.82;;;;;;;31.39;21.32;94723.56;5114387;28;20035;-57
2021/09/16 02:22:23;;;;;;;6.05;5.45;;;;;;;31.28;21.76;94718.34;5114350;28;20062;-58
2021/09/16 02:24:50;;;;;;;8.82;5.85;;;;;;;31.41;21.15;94719.28;5110548;28;20060;-56
2021/09/16 02:27:17;;;;;;;6.20;5.53;;;;;;;31.34;21.40;94705.91;5109862;28;20059;-59
2021/09/16 02:29:44;;;;;;;6.18;5.57;;;;;;;31.31;21.39;94705.97;5114937;28;20042;-58
2021/09/16 02:32:11;;;;;;;13.00;6.10;;;;;;;31.27;21.45;94716.84;5114835;28;20043;-56
2021/09/16 02:34:38;;;;;;;10.85;6.05;;;;;;;31.10;21.73;94713.19;5114558;28;20050;-57
2021/09/16 02:37:05;;;;;;;9.13;6.30;;;;;;;31.24;21.44;94707.63;5114564;28;20044;-54
2021/09/16 02:39:32;;;;;;;9.60;6.50;;;;;;;31.11;21.57;94717.44;5114504;28;20043;-59
2021/09/16 02:41:59;;;;;;;14.27;6.15;;;;;;;31.32;21.54;94719.06;5115422;28;20043;-56
2021/09/16 02:44:26;;;;;;;7.18;5.65;;;;;;;31.42;21.39;94711.94;5118480;28;20061;-58
2021/09/16 02:46:53;;;;;;;9.85;6.50;;;;;;;31.26;21.39;94721.47;5118080;28;20046;-57
2021/09/16 02:49:20;;;;;;;9.05;6.13;;;;;;;31.28;21.42;94723.75;5119049;28;20048;-60
2021/09/16 02:51:47;;;;;;;7.35;6.60;;;;;;;31.12;21.66;94710.84;5118983;28;20070;-61
2021/09/16 02:54:14;;;;;;;7.72;6.38;;;;;;;31.09;21.81;94719.00;5118652;28;20044;-57
2021/09/16 02:56:42;;;;;;;8.25;6.10;;;;;;;31.27;21.50;94723.00;5118914;28;20051;-60
2021/09/16 02:59:10;;;;;;;9.63;5.85;;;;;;;31.69;21.33;94728.06;5118578;27;20050;-52
2021/09/16 03:01:37;;;;;;;9.80;6.50;;;;;;;31.46;21.04;94726.91;5125085;27;20042;-54
2021/09/16 03:04:04;;;;;;;9.35;6.03;;;;;;;31.12;21.47;94723.59;5117000;28;20051;-68
2021/09/16 03:06:31;;;;;;;6.97;6.25;;;;;;;31.12;21.62;94726.28;5118652;28;20047;-67
2021/09/16 03:08:58;;;;;;;9.57;5.75;;;;;;;30.90;22.01;94728.53;5117576;28;20470;-68
2021/09/16 03:11:25;;;;;;;10.00;6.22;;;;;;;30.97;22.13;94720.34;5118557;28;20048;-68
2021/09/16 03:13:52;;;;;;;6.38;5.78;;;;;;;30.63;22.25;94723.13;5118191;28;20055;-67
2021/09/16 03:16:20;;;;;;;10.05;7.82;;;;;;;30.80;22.03;94727.53;5100452;28;20043;-66
2021/09/16 03:18:47;;;;;;;7.20;6.32;;;;;;;30.96;22.02;94726.91;5118660;28;20051;-52
2021/09/16 03:21:14;;;;;;;8.07;6.05;;;;;;;30.89;22.01;94721.59;5118376;28;20039;-53
2021/09/16 03:23:41;;;;;;;8.48;5.93;;;;;;;30.63;22.40;94720.44;5117848;28;20399;-53
2021/09/16 03:26:08;;;;;;;7.22;6.20;;;;;;;30.95;22.10;94717.28;5117325;28;20056;-53
2021/09/16 03:28:38;;;;;;;9.15;6.90;;;;;;;30.84;22.06;94714.75;5118663;28;20062;-65
2021/09/16 03:31:06;;;;;;;7.20;6.50;;;;;;;30.55;22.28;94722.44;5118552;28;20048;-52
2021/09/16 03:33:34;;;;;;;11.45;7.07;;;;;;;30.79;22.08;94719.84;5109529;28;20051;-54
2021/09/16 03:36:01;;;;;;;9.45;7.20;;;;;;;30.68;22.07;94720.72;5118656;28;20044;-55
2021/09/16 03:38:28;;;;;;;8.48;6.70;;;;;;;30.55;22.40;94727.84;5117846;28;20039;-54
2021/09/16 03:40:55;;;;;;;9.35;6.70;;;;;;;30.58;22.25;94734.34;5117607;28;20039;-55
2021/09/16 03:43:22;;;;;;;8.35;6.80;;;;;;;30.67;22.00;94735.41;5117249;28;20059;-53
2021/09/16 03:45:49;;;;;;;8.38;6.20;;;;;;;30.52;22.27;94728.66;5117795;28;20058;-53
2021/09/16 03:48:16;;;;;;;9.15;6.60;;;;;;;30.44;22.45;94729.88;5117244;28;20081;-56
2021/09/16 03:50:44;;;;;;;10.57;6.78;;;;;;;30.29;22.70;94736.63;5117850;28;20450;-56
2021/09/16 03:53:11;;;;;;;9.23;7.15;;;;;;;30.26;22.45;94734.75;5116384;28;20055;-52
2021/09/16 03:55:38;;;;;;;11.15;7.60;;;;;;;30.62;22.02;94737.78;5115685;28;20056;-60
2021/09/16 03:58:05;;;;;;;10.88;6.75;;;;;;;30.37;22.24;94727.28;5117217;28;20062;-55
2021/09/16 04:00:32;;;;;;;7.10;6.40;;;;;;;30.56;22.34;94729.34;5116584;28;20036;-69
2021/09/16 04:03:10;;;;;;;9.55;7.05;;;;;;;30.26;22.56;94726.66;5094614;22;20049;-68
2021/09/16 04:06:14;;;;;;;8.32;6.93;;;;;;;30.47;22.31;94731.03;5056894;28;20049;-63
2021/09/16 04:08:41;;;;;;;8.63;6.32;;;;;;;30.58;22.21;94729.72;5014039;28;20045;-68
2021/09/16 04:11:18;;;;;;;7.47;6.25;;;;;;;31.38;21.45;94722.03;5011579;28;20054;-47
2021/09/16 04:13:45;;;;;;;10.27;6.93;;;;;;;31.54;21.11;94724.88;5001940;28;20050;-46
2021/09/16 04:16:12;;;;;;;12.00;7.13;;;;;;;31.62;21.17;94720.88;5014500;28;20049;-49
2021/09/16 04:18:39;;;;;;;9.60;7.00;;;;;;;31.66;20.97;94728.91;5025586;28;20172;-55
2021/09/16 04:21:07;;;;;;;10.55;7.20;;;;;;;31.68;20.92;94730.00;5034141;28;20049;-51
2021/09/16 04:23:34;;;;;;;8.90;6.22;;;;;;;32.22;20.56;94722.47;5021439;28;20479;-56
2021/09/16 04:26:01;;;;;;;10.07;6.95;;;;;;;32.88;19.57;94731.59;5023220;28;20053;-56
2021/09/16 04:28:28;;;;;;;9.77;7.38;;;;;;;33.29;19.35;94722.91;5012231;28;20064;-58
2021/09/16 04:30:56;;;;;;;12.68;9.07;;;;;;;33.06;19.99;94731.97;5013838;28;20065;-54
2021/09/16 04:33:24;;;;;;;12.68;10.27;;;;;;;32.71;20.01;94738.13;4997166;28;20061;-46
2021/09/16 04:35:51;;;;;;;12.13;9.52;;;;;;;32.32;20.84;94739.72;5013106;28;20084;-61
2021/09/16 04:38:18;;;;;;;13.90;10.60;;;;;;;32.57;20.28;94744.63;5012882;28;20046;-68
2021/09/16 04:40:45;;;;;;;12.70;10.77;;;;;;;32.67;20.26;94745.56;5047109;28;20041;-62
2021/09/16 04:43:12;;;;;;;17.45;10.85;;;;;;;32.36;20.57;94748.50;5035329;28;20045;-49
2021/09/16 04:45:39;;;;;;;16.80;10.05;;;;;;;32.33;20.65;94746.66;5045701;28;20053;-55
2021/09/16 04:48:08;;;;;;;14.15;10.18;;;;;;;32.50;20.38;94758.28;5036175;28;20053;-54
2021/09/16 04:50:35;;;;;;;12.80;9.40;;;;;;;32.27;20.76;94742.91;5017612;28;20056;-58
2021/09/16 04:53:02;;;;;;;13.38;8.90;;;;;;;32.43;20.79;94750.31;5042203;28;20040;-58
2021/09/16 04:55:30;;;;;;;10.73;8.43;;;;;;;32.41;20.89;94758.84;5055560;28;20432;-55
2021/09/16 04:57:57;;;;;;;12.05;8.48;;;;;;;32.70;20.51;94758.25;5056034;28;20055;-58
2021/09/16 05:00:24;;;;;;;12.27;8.15;;;;;;;32.87;19.88;94762.56;5055902;28;20428;-52
2021/09/16 05:02:51;;;;;;;14.43;8.00;;;;;;;32.57;20.41;94762.78;5054154;28;20056;-58
2021/09/16 05:05:18;;;;;;;16.25;8.68;;;;;;;33.18;20.78;94770.38;5054326;28;20045;-58
2021/09/16 05:07:45;;;;;;;14.88;8.48;;;;;;;33.59;20.41;94761.72;5038471;28;20440;-55
2021/09/16 05:10:12;;;;;;;15.90;7.70;;;;;;;33.96;19.73;94765.84;5036514;28;20045;-59
2021/09/16 05:12:39;;;;;;;17.33;8.07;;;;;;;34.30;19.20;94762.59;5055490;28;20048;-56
2021/09/16 05:15:07;;;;;;;20.08;8.98;;;;;;;34.74;18.78;94760.97;5055262;28;20064;-57
2021/09/16 05:17:34;;;;;;;13.32;8.55;;;;;;;34.08;19.31;94759.69;5035719;28;20357;-62
2021/09/16 05:20:01;;;;;;;15.55;8.55;;;;;;;33.13;20.00;94765.47;5035642;28;20056;-52
2021/09/16 05:22:30;;;;;;;10.52;8.00;;;;;;;32.76;20.68;94767.41;5034942;28;20064;-56
2021/09/16 05:24:57;;;;;;;13.13;8.52;;;;;;;33.19;20.32;94772.69;5040133;28;20045;-56
2021/09/16 05:27:24;;;;;;;16.00;9.18;;;;;;;33.54;19.91;94773.81;5045399;28;20056;-69
2021/09/16 05:29:55;;;;;;;18.73;9.35;;;;;;;33.51;19.77;94766.53;5035661;28;20049;-74
2021/09/16 05:32:27;;;;;;;20.92;9.27;;;;;;;33.47;20.14;94776.69;5035335;28;20048;-76
2021/09/16 05:34:57;;;;;;;18.15;9.32;;;;;;;33.61;19.79;94783.72;5054870;28;20479;-77
2021/09/16 05:37:26;;;;;;;19.85;9.02;;;;;;;33.72;19.69;94784.97;5054957;28;20044;-78
2021/09/16 05:39:53;;;;;;;16.55;8.65;;;;;;;33.81;19.50;94789.03;5051085;28;20045;-77
2021/09/16 05:42:20;;;;;;;15.10;9.00;;;;;;;33.87;19.34;94784.66;5017743;28;20046;-76
2021/09/16 05:44:47;;;;;;;12.23;8.73;;;;;;;34.06;19.11;94788.44;5043020;28;20068;-65
2021/09/16 05:47:15;;;;;;;15.57;8.60;;;;;;;34.02;19.07;94785.81;5054756;28;20482;-63
2021/09/16 05:49:45;;;;;;;12.30;8.57;;;;;;;33.86;19.02;94785.84;5055121;28;20048;-67
2021/09/16 05:52:13;;;;;;;14.98;8.20;;;;;;;34.04;19.24;94780.72;5037353;28;20060;-66
2021/09/16 05:54:40;;;;;;;10.40;7.80;;;;;;;34.13;18.86;94777.41;5054566;28;20056;-62
2021/09/16 05:57:07;;;;;;;9.20;7.30;;;;;;;34.16;18.58;94779.25;5054757;28;20055;-76
2021/09/16 05:59:37;;;;;;;12.40;7.50;;;;;;;34.12;18.64;94781.31;5037541;28;20059;-73
2021/09/16 06:02:04;;;;;;;11.02;8.38;;;;;;;34.30;18.29;94782.34;5053118;28;20041;-73
2021/09/16 06:04:48;;;;;;;12.18;8.43;;;;;;;34.35;18.74;94780.31;5054131;28;20056;-72
2021/09/16 06:07:15;;;;;;;10.98;8.35;;;;;;;34.48;18.68;94786.56;5053335;28;20355;-73
2021/09/16 06:09:42;;;;;;;13.02;7.93;;;;;;;34.48;18.53;94787.31;5054922;28;20439;-76
2021/09/16 06:12:10;;;;;;;13.77;8.50;;;;;;;34.55;18.34;94786.34;5053450;28;20128;-68
2021/09/16 06:14:37;;;;;;;11.23;7.53;;;;;;;34.85;18.27;94790.56;5054655;28;20395;-74
2021/09/16 06:17:05;;;;;;;13.15;7.55;;;;;;;34.69;18.07;94791.38;5036078;28;20048;-75
2021/09/16 06:19:32;;;;;;;10.52;7.13;;;;;;;34.84;18.13;94787.09;5054611;28;20337;-73
2021/09/16 06:21:59;;;;;;;11.88;7.85;;;;;;;34.86;18.09;94790.13;5054689;28;20048;-76
2021/09/16 06:24:26;;;;;;;10.38;7.75;;;;;;;35.02;17.99;94796.66;5054176;28;20061;-73
2021/09/16 06:26:53;;;;;;;10.35;7.57;;;;;;;35.20;17.76;94789.50;5054110;28;20045;-65
2021/09/16 06:29:22;;;;;;;10.82;7.60;;;;;;;35.26;17.49;94795.16;5034483;28;20114;-67
2021/09/16 06:31:49;;;;;;;10.13;6.75;;;;;;;35.16;17.58;94788.09;5034321;28;20380;-64
2021/09/16 06:34:17;;;;;;;8.40;6.80;;;;;;;35.21;17.29;94787.56;5051647;28;20048;-73
2021/09/16 06:36:46;;;;;;;10.40;6.90;;;;;;;35.19;17.41;94789.94;5052774;28;20064;-76
2021/09/16 06:39:47;;;;;;;11.07;6.82;;;;;;;35.37;17.82;94779.28;4984410;28;20061;-76
2021/09/16 06:42:19;;;;;;;14.75;7.38;;;;;;;35.53;17.57;94781.91;5012216;28;20157;-75
2021/09/16 06:45:00;;;;;;;14.25;7.20;;;;;;;35.78;17.36;94785.75;5012484;28;20054;-76
2021/09/16 06:47:49;;;;;;;14.57;7.60;;;;;;;36.04;17.14;94787.25;4996384;28;20064;-75
2021/09/16 06:50:19;;;;;;;13.27;7.28;;;;;;;36.06;17.18;94784.84;4994539;28;20050;-75
2021/09/16 06:52:51;;;;;;;13.82;7.97;;;;;;;36.10;17.09;94790.16;4960218;28;20046;-77
2021/09/16 06:55:45;;;;;;;9.70;7.25;;;;;;;36.20;16.74;94783.59;4992685;28;20065;-74
2021/09/16 06:58:19;;;;;;;8.80;7.55;;;;;;;36.22;16.78;94791.31;5006938;28;20057;-74
2021/09/16 07:01:01;;;;;;;11.63;7.93;;;;;;;36.47;16.51;94785.78;4995947;28;20053;-75
2021/09/16 07:03:34;;;;;;;9.77;7.32;;;;;;;36.63;16.39;94782.84;5011632;28;20058;-75
2021/09/16 07:06:01;;;;;;;9.05;8.10;;;;;;;36.88;16.17;94778.47;5012089;28;20045;-76
2021/09/16 07:08:31;;;;;;;11.32;8.38;;;;;;;37.03;16.02;94774.03;5011622;28;20046;-76
2021/09/16 07:11:02;;;;;;;10.57;8.32;;;;;;;37.38;15.95;94773.88;5038311;28;20463;-74
2021/09/16 07:13:29;;;;;;;10.07;8.38;;;;;;;37.63;15.74;94773.63;5053990;28;20053;-76
2021/09/16 07:15:58;;;;;;;9.70;7.80;;;;;;;38.16;15.13;94771.44;5036955;28;20056;-69
2021/09/16 07:18:25;;;;;;;10.55;7.90;;;;;;;38.29;15.27;94779.50;5051800;28;20057;-74
2021/09/16 07:21:01;;;;;;;12.85;7.75;;;;;;;38.53;14.78;94783.13;5034299;28;20049;-73
2021/09/16 07:23:29;;;;;;;11.70;8.07;;;;;;;38.79;14.66;94777.31;5043412;28;20057;-73
2021/09/16 07:25:56;;;;;;;9.90;7.25;;;;;;;38.64;14.74;94777.19;5053684;28;20052;-72
2021/09/16 07:28:23;;;;;;;11.02;7.70;;;;;;;38.96;14.17;94775.75;5053656;28;20053;-74
2021/09/16 07:30:51;;;;;;;10.25;8.48;;;;;;;39.00;14.34;94776.31;5057900;28;20047;-74
2021/09/16 07:33:18;;;;;;;15.57;8.10;;;;;;;39.19;14.33;94784.50;5057350;28;20053;-76
2021/09/16 07:35:45;;;;;;;14.07;8.85;;;;;;;39.48;14.17;94782.69;5044836;28;20057;-76
2021/09/16 07:38:14;;;;;;;11.77;8.80;;;;;;;39.70;13.87;94785.16;5050458;28;20040;-75
2021/09/16 07:40:41;;;;;;;10.38;8.38;;;;;;;39.74;13.78;94788.47;5057682;28;20359;-75
2021/09/16 07:43:09;;;;;;;9.90;7.63;;;;;;;39.75;13.70;94789.25;5057308;28;20470;-76
2021/09/16 07:45:43;;;;;;;11.07;8.48;;;;;;;39.94;13.28;94790.66;5057262;28;20053;-75
2021/09/16 07:48:10;;;;;;;9.95;8.10;;;;;;;39.86;13.65;94788.72;5057129;28;20040;-75
2021/09/16 07:50:37;;;;;;;11.63;8.20;;;;;;;40.13;13.55;94785.81;5057425;28;20049;-75
2021/09/16 07:53:05;;;;;;;11.32;8.10;;;;;;;40.47;13.07;94786.47;5057186;28;20056;-75
2021/09/16 07:55:33;;;;;;;12.15;7.85;;;;;;;40.09;13.43;94784.50;5045431;28;20060;-76
2021/09/16 07:58:00;;;;;;;8.77;7.88;;;;;;;39.46;14.09;94790.59;5030595;28;20044;-71
2021/09/16 08:00:35;;;;;;;12.70;7.85;;;;;;;38.62;15.16;94792.50;5055871;28;20395;-68
2021/09/16 08:03:04;;;;;;;10.90;8.40;;;;;;;38.66;14.68;94774.00;5050233;28;20474;-67
2021/09/16 08:05:40;;;;;;;8.45;7.63;;;;;;;38.51;14.91;94779.31;5052194;28;20053;-69
2021/09/16 08:08:31;;;;;;;8.77;7.47;;;;;;;38.21;15.19;94773.56;5034347;28;20049;-70
2021/09/16 08:10:59;;;;;;;12.18;8.18;;;;;;;38.24;15.45;94775.38;5018092;28;20069;-71
2021/09/16 08:13:26;;;;;;;12.30;10.23;;;;;;;38.31;15.15;94770.84;5034472;28;20045;-70
2021/09/16 08:15:59;;;;;;;12.50;9.10;;;;;;;38.50;15.11;94761.41;5033303;28;20045;-71
2021/09/16 08:18:26;;;;;;;12.93;8.00;;;;;;;38.84;14.92;94758.34;5034085;28;20053;-67
2021/09/16 08:20:54;;;;;;;10.55;8.75;;;;;;;38.78;14.96;94765.66;5034516;28;20045;-68
2021/09/16 08:23:29;;;;;;;8.73;7.72;;;;;;;38.96;14.75;94755.84;5019272;28;20052;-70
2021/09/16 08:25:59;;;;;;;9.82;7.28;;;;;;;39.03;14.67;94756.28;5034274;28;20068;-68
2021/09/16 08:28:26;;;;;;;9.60;7.60;;;;;;;39.10;14.55;94756.00;5014135;28;20073;-71
2021/09/16 08:30:53;;;;;;;9.07;6.95;;;;;;;39.12;14.68;94756.28;5016167;28;20045;-71
2021/09/16 08:33:23;;;;;;;8.60;7.20;;;;;;;39.14;14.58;94759.31;5031879;28;20053;-73
2021/09/16 08:35:50;;;;;;;10.90;7.60;;;;;;;39.06;14.42;94752.69;5014164;28;20153;-71
2021/09/16 08:38:17;;;;;;;12.95;7.40;;;;;;;38.98;14.58;94751.44;4993207;28;20052;-75
2021/09/16 08:41:03;;;;;;;9.90;6.93;;;;;;;39.11;14.45;94749.31;5034178;28;20060;-77
2021/09/16 08:43:32;;;;;;;10.63;6.90;;;;;;;39.66;14.03;94754.50;5034022;28;20399;-75
2021/09/16 08:46:01;;;;;;;;;;;;;;;39.71;14.46;94744.91;5041509;28;20064;-70
2021/09/16 08:48:28;;;;;;;8.77;7.05;;;;;;;39.63;14.15;94749.97;5048761;28;19923;-74
2021/09/16 08:50:55;;;;;;;7.97;7.18;;;;;;;39.57;13.98;94757.31;5056621;28;20045;-75
2021/09/16 08:53:29;;;;;;;10.95;7.80;;;;;;;39.73;14.08;94745.94;5038630;28;20044;-75
2021/09/16 08:56:17;;;;;;;10.00;7.25;;;;;;;39.85;14.03;94748.91;5019978;28;20372;-75
2021/09/16 08:59:07;;;;;;;11.82;7.25;;;;;;;39.77;14.25;94738.31;5033639;28;20041;-74
2021/09/16 09:01:35;;;;;;;9.82;6.70;;;;;;;39.98;14.26;94741.97;5032762;28;20057;-76
2021/09/16 09:04:05;;;;;;;10.20;6.82;;;;;;;39.94;13.84;94740.63;5033180;28;20057;-69
2021/09/16 09:06:38;;;;;;;9.23;7.15;;;;;;;40.19;13.87;94733.91;5017771;28;20056;-76
2021/09/16 09:09:34;;;;;;;12.77;7.40;;;;;;;39.90;13.88;94732.59;5013287;28;20054;-76
2021/09/16 09:12:14;;;;;;;11.93;7.25;;;;;;;39.93;13.74;94728.94;4997249;28;20054;-71
2021/09/16 09:14:47;;;;;;;8.43;6.80;;;;;;;39.78;13.95;94728.88;5018832;28;20053;-75
2021/09/16 09:17:26;;;;;;;12.82;7.35;;;;;;;39.90;14.10;94735.34;5016968;28;20495;-75
2021/09/16 09:19:58;;;;;;;8.98;6.95;;;;;;;39.94;13.93;94735.16;5033562;28;20057;-76
2021/09/16 09:22:29;;;;;;;10.13;7.30;;;;;;;39.99;13.85;94720.84;5033313;28;20045;-76
2021/09/16 09:25:07;;;;;;;9.82;7.95;;;;;;;40.25;13.63;94729.28;5032786;28;20072;-73
2021/09/16 09:27:52;;;;;;;13.88;7.70;;;;;;;40.20;13.80;94730.69;5033001;28;20457;-75
2021/09/16 09:30:31;;;;;;;13.75;7.63;;;;;;;40.53;13.60;94725.06;5016721;28;20053;-76
2021/09/16 09:33:19;;;;;;;11.35;7.93;;;;;;;40.54;13.61;94723.09;5035627;28;20049;-76
2021/09/16 09:35:47;;;;;;;12.13;7.95;;;;;;;40.47;13.65;94726.22;5011935;28;20053;-73
2021/09/16 09:38:26;;;;;;;9.57;7.95;;;;;;;40.62;13.38;94716.78;5012954;28;20080;-71
2021/09/16 09:41:02;;;;;;;8.27;7.47;;;;;;;40.67;13.34;94729.81;4998039;28;20069;-76
2021/09/16 09:43:37;;;;;;;15.55;7.60;;;;;;;40.78;13.05;94717.50;4997353;28;20045;-74
2021/09/16 09:46:12;;;;;;;12.05;7.95;;;;;;;40.73;13.48;94709.97;5010626;28;20060;-75
2021/09/16 09:49:04;;;;;;;14.25;12.85;;;;;;;40.63;13.18;94712.06;5011777;28;20053;-77
2021/09/16 09:51:53;;;;;;;12.75;11.45;;;;;;;40.92;13.08;94717.53;5011656;28;20060;-77
2021/09/16 09:54:20;;;;;;;11.10;9.35;;;;;;;41.00;13.47;94714.38;5012947;28;20468;-77
2021/09/16 09:57:03;;;;;;;12.80;8.43;;;;;;;41.11;13.48;94711.78;5012984;28;20065;-77
2021/09/16 09:59:57;;;;;;;13.27;8.27;;;;;;;41.18;13.12;94711.41;4993590;28;20050;-76
2021/09/16 10:02:53;;;;;;;11.85;8.15;;;;;;;41.03;12.96;94710.69;4993618;28;20569;-73
2021/09/16 10:05:32;;;;;;;13.23;8.25;;;;;;;41.05;12.96;94700.00;5012809;28;20495;-78
2021/09/16 10:08:11;;;;;;;9.48;7.63;;;;;;;41.17;12.94;94688.72;5052794;28;20041;-72
2021/09/16 10:10:49;;;;;;;12.27;8.00;;;;;;;41.18;13.13;94694.97;5054855;28;20048;-77
2021/09/16 10:13:18;;;;;;;12.95;7.80;;;;;;;41.23;13.29;94686.09;5054602;28;20064;-78
2021/09/16 10:15:50;;;;;;;11.63;7.47;;;;;;;41.06;12.96;94688.56;5054416;28;20052;-77
2021/09/16 10:18:18;;;;;;;9.98;7.07;;;;;;;41.09;13.11;94693.09;5054274;28;20515;-74
2021/09/16 10:20:46;;;;;;;9.95;7.07;;;;;;;41.05;12.95;94683.56;5054707;28;20045;-74
2021/09/16 10:23:14;;;;;;;10.13;6.63;;;;;;;41.29;12.57;94684.16;5054032;28;20053;-73
2021/09/16 10:25:49;;;;;;;11.23;6.50;;;;;;;41.28;13.08;94677.19;5017128;28;20356;-77
2021/09/16 10:28:18;;;;;;;11.48;6.55;;;;;;;41.33;13.03;94690.19;5042719;28;20056;-77
2021/09/16 10:30:52;;;;;;;8.88;6.63;;;;;;;41.42;13.01;94679.13;5054371;28;20045;-73
2021/09/16 10:33:28;;;;;;;11.10;7.00;;;;;;;41.29;12.71;94678.69;5053734;28;20486;-72
2021/09/16 10:35:59;;;;;;;7.60;6.60;;;;;;;41.51;13.01;94676.22;5054098;28;20045;-75
2021/09/16 10:38:26;;;;;;;;;;;;;;;41.41;13.24;94672.13;5054808;28;20483;-76
2021/09/16 10:41:13;;;;;;;9.85;6.88;;;;;;;41.35;13.15;94665.78;5054714;28;19943;-75
2021/09/16 10:43:42;;;;;;;12.02;6.65;;;;;;;41.23;12.95;94664.91;5054135;28;20036;-76
2021/09/16 10:46:37;;;;;;;11.15;6.22;;;;;;;41.40;12.70;94662.38;5054116;28;20079;-74
2021/09/16 10:49:20;;;;;;;11.52;5.95;;;;;;;41.31;12.76;94654.28;5054029;28;20048;-72
2021/09/16 10:51:52;;;;;;;7.93;6.20;;;;;;;41.48;12.96;94658.00;5054141;28;20053;-77
2021/09/16 10:54:28;;;;;;;9.35;6.18;;;;;;;41.81;11.94;94646.66;5053416;28;20452;-69
2021/09/16 10:57:01;;;;;;;8.38;5.82;;;;;;;41.49;12.16;94648.53;5054083;28;20399;-75
2021/09/16 10:59:52;;;;;;;10.38;5.95;;;;;;;41.32;12.02;94641.31;5094903;27;20431;-78
2021/09/16 11:03:04;;;;;;;6.50;5.30;;;;;;;41.09;11.71;94632.78;4395999;27;21035789;-71
2021/09/16 11:06:42;;;;;;;5.90;5.05;;;;;;;41.39;11.95;94627.97;4545440;27;16645231;-75
2021/09/16 11:09:12;;;;;;;9.18;5.70;;;;;;;41.52;11.99;94630.34;5094102;28;20046;-75
2021/09/16 11:12:02;;;;;;;8.02;5.60;;;;;;;41.58;12.04;94629.16;5112446;28;20049;-75
2021/09/16 11:14:42;;;;;;;7.63;5.07;;;;;;;41.22;11.83;94614.03;5111756;28;20043;-76
2021/09/16 11:17:13;;;;;;;6.93;4.88;;;;;;;41.18;11.56;94618.19;5112508;28;20047;-75
2021/09/16 11:20:13;;;;;;;6.75;5.07;;;;;;;41.43;11.44;94611.31;5047734;28;20332;-74
2021/09/16 11:22:40;;;;;;;6.57;5.03;;;;;;;41.42;11.22;94601.56;5031406;28;20053;-76
2021/09/16 11:25:50;;;;;;;6.57;5.10;;;;;;;41.39;11.59;94611.50;5071685;28;20401;-72
2021/09/16 11:28:59;;;;;;;5.30;4.80;;;;;;;41.12;11.21;94598.94;5091846;28;20316;-74
2021/09/16 11:31:41;;;;;;;5.05;4.32;;;;;;;41.26;11.45;94600.13;5092152;27;20410;-70
2021/09/16 11:34:24;;;;;;;5.57;4.05;;;;;;;41.07;11.02;94596.88;5091697;27;20413;-72
2021/09/16 11:37:51;;;;;;;5.35;3.97;;;;;;;41.22;10.42;94596.81;5051823;28;20751;-69
2021/09/16 11:40:48;;;;;;;5.95;4.32;;;;;;;41.48;10.86;94583.19;5092198;27;20389;-70
2021/09/16 11:43:44;;;;;;;5.55;4.47;;;;;;;41.61;10.80;94580.06;5071880;28;20396;-71
2021/09/16 11:46:29;;;;;;;7.32;4.95;;;;;;;41.53;10.79;94577.75;5091760;27;20896;-69
2021/09/16 11:49:22;;;;;;;10.75;9.65;;;;;;;41.53;10.83;94572.25;5114276;27;20734;-73
2021/09/16 11:52:21;;;;;;;5.88;5.38;;;;;;;41.48;10.29;94575.69;5112347;27;20186;-75